Terminal Aerodrome Forecast
Issued by NWS

Home | Current Version | Previous Version | Text Only | Print | Product List | Glossary On
Versions: 1 2 3 4 5 6 7 8 9 10 11 12 13 14 15 16 17 18 19 20 21 22 23 24 25 26
000
FTUS45 KFGZ 201100
TAFGCN
TAF
KGCN 201140Z 2012/2112 VRB03KT P6SM BKN200
     FM202000 VRB05KT P6SM BKN110 BKN200
     FM210200 VRB06KT P6SM BKN080 BKN120=

USA.gov is the U.S. government's official web portal to all federal, state and local government web resources and services.